createdAt,value
2022-07-28T00:00:56.797Z,102138.38
2022-07-28T00:03:25.302Z,102143.59
2022-07-28T00:05:53.609Z,102138.28
2022-07-28T00:08:21.967Z,102131.19
2022-07-28T00:10:50.258Z,102139.97
2022-07-28T00:13:18.559Z,102131.97
2022-07-28T00:15:46.853Z,102134.59
2022-07-28T00:18:15.206Z,102134.53
2022-07-28T00:20:43.546Z,102135.41
2022-07-28T00:23:11.855Z,102133.59
2022-07-28T00:25:40.212Z,102129.19
2022-07-28T00:28:08.562Z,102127.38
2022-07-28T00:30:36.886Z,102128.28
2022-07-28T00:33:05.438Z,102121.22
2022-07-28T00:35:34.784Z,102126.53
2022-07-28T00:38:03.111Z,102118.59
2022-07-28T00:40:50.808Z,102118.59
2022-07-28T00:43:20.237Z,102126.53
2022-07-28T00:45:48.578Z,102122.97
2022-07-28T00:48:17.912Z,102121.16
2022-07-28T00:50:46.497Z,102121.13
2022-07-28T00:53:14.987Z,102115.81
2022-07-28T00:56:03.687Z,102114.03
2022-07-28T00:58:32.452Z,102118.41
2022-07-28T01:01:00.749Z,102121.94
2022-07-28T01:03:29.524Z,102121.09
2022-07-28T01:06:31.721Z,102123.72
2022-07-28T01:09:30.831Z,102122.84
2022-07-28T01:12:25.526Z,102128.13
2022-07-28T01:15:23.204Z,102119.34
2022-07-28T01:17:58.026Z,102117.59
2022-07-28T01:20:34.259Z,102116.75
2022-07-28T01:23:08.582Z,102122.03
2022-07-28T01:25:40.001Z,102119.41
2022-07-28T01:28:52.257Z,102112.38
2022-07-28T01:31:24.778Z,102110.66
2022-07-28T01:33:58.574Z,102116.00
2022-07-28T01:36:36.327Z,102108.97
2022-07-28T01:39:05.273Z,102109.88
2022-07-28T01:41:36.346Z,102106.38
2022-07-28T01:44:13.338Z,102108.19
2022-07-28T01:46:44.365Z,102098.53
2022-07-28T01:49:14.694Z,102096.78
2022-07-28T01:51:45.126Z,102095.94
2022-07-28T01:54:15.599Z,102082.72
2022-07-28T01:56:44.750Z,102079.25
2022-07-28T01:59:17.330Z,102079.25
2022-07-28T02:01:47.176Z,102084.56
2022-07-28T02:04:18.988Z,102084.56
2022-07-28T02:06:48.661Z,102085.47
2022-07-28T02:09:18.963Z,102081.06
2022-07-28T02:11:50.055Z,102082.88
2022-07-28T02:14:22.357Z,102076.69
2022-07-28T02:17:01.984Z,102074.97
2022-07-28T02:19:32.223Z,102072.31
2022-07-28T02:22:03.135Z,102081.13
2022-07-28T02:24:32.684Z,102072.28
2022-07-28T02:27:10.201Z,102082.00
2022-07-28T02:29:52.004Z,102081.13
2022-07-28T02:32:32.382Z,102082.00
2022-07-28T02:35:09.341Z,102081.13
2022-07-28T02:37:42.005Z,102081.13
2022-07-28T02:40:15.344Z,102080.25
2022-07-28T02:42:48.762Z,102083.81
2022-07-28T02:45:25.296Z,102085.56
2022-07-28T02:47:58.261Z,102082.91
2022-07-28T02:50:28.658Z,102081.16
2022-07-28T02:53:15.771Z,102082.94
2022-07-28T02:55:48.359Z,102085.59
2022-07-28T02:58:23.948Z,102082.97
2022-07-28T03:00:54.499Z,102080.34
2022-07-28T03:03:24.875Z,102077.69
2022-07-28T03:05:53.912Z,102085.63
2022-07-28T03:08:22.374Z,102094.50
2022-07-28T03:11:05.568Z,102093.59
2022-07-28T03:13:34.081Z,102091.81
2022-07-28T03:16:02.591Z,102096.28
2022-07-28T03:18:33.717Z,102084.81
2022-07-28T03:21:02.279Z,102093.66
2022-07-28T03:23:36.772Z,102098.94
2022-07-28T03:26:34.464Z,102091.00
2022-07-28T03:29:03.683Z,102093.66
2022-07-28T03:31:35.411Z,102095.38
2022-07-28T03:34:05.693Z,102095.38
2022-07-28T03:36:41.818Z,102094.50
2022-07-28T03:39:12.510Z,102098.03
2022-07-28T03:41:41.197Z,102098.91
2022-07-28T03:44:11.535Z,102096.28
2022-07-28T03:46:44.576Z,102101.59
2022-07-28T03:49:13.480Z,102113.03
2022-07-28T03:51:42.209Z,102104.25
2022-07-28T03:54:11.091Z,102109.56
2022-07-28T03:56:39.632Z,102109.53
2022-07-28T03:59:08.075Z,102108.66
2022-07-28T04:01:36.812Z,102115.75
2022-07-28T04:04:05.777Z,102108.69
2022-07-28T04:06:34.101Z,102105.16
2022-07-28T04:09:02.647Z,102106.91
2022-07-28T04:11:31.028Z,102108.66
2022-07-28T04:13:59.483Z,102105.13
2022-07-28T04:16:28.024Z,102103.38
2022-07-28T04:18:57.005Z,102105.13
2022-07-28T04:21:25.939Z,102106.91
2022-07-28T04:23:58.468Z,102112.25
2022-07-28T04:26:30.067Z,102106.09
2022-07-28T04:28:58.475Z,102103.47
2022-07-28T04:31:31.911Z,102104.38
2022-07-28T04:34:01.025Z,102102.59
2022-07-28T04:36:29.396Z,102096.44
2022-07-28T04:38:59.420Z,102106.16
2022-07-28T04:41:27.987Z,102103.53
2022-07-28T04:43:56.352Z,102101.78
2022-07-28T04:46:25.138Z,102105.31
2022-07-28T04:48:53.624Z,102093.81
2022-07-28T04:51:23.171Z,102107.97
2022-07-28T04:53:53.249Z,102093.81
2022-07-28T04:56:21.625Z,102095.63
2022-07-28T04:58:49.975Z,102102.69
2022-07-28T05:01:18.481Z,102099.16
2022-07-28T05:03:47.006Z,102108.00
2022-07-28T05:06:15.498Z,102103.59
2022-07-28T05:08:43.796Z,102113.31
2022-07-28T05:11:12.067Z,102107.16
2022-07-28T05:13:40.655Z,102111.59
2022-07-28T05:16:09.207Z,102109.88
2022-07-28T05:18:37.896Z,102109.88
2022-07-28T05:21:06.916Z,102101.94
2022-07-28T05:23:37.060Z,102109.03
2022-07-28T05:26:07.233Z,102107.25
2022-07-28T05:28:35.560Z,102104.59
2022-07-28T05:31:03.953Z,102110.78
2022-07-28T05:33:32.708Z,102109.06
2022-07-28T05:36:01.451Z,102117.88
2022-07-28T05:38:31.133Z,102120.56
2022-07-28T05:41:00.308Z,102123.22
2022-07-28T05:43:29.165Z,102120.59
2022-07-28T05:45:57.660Z,102122.38
2022-07-28T05:48:26.506Z,102130.34
2022-07-28T05:50:55.223Z,102125.91
2022-07-28T05:53:24.200Z,102124.16
2022-07-28T05:56:00.515Z,102133.91
2022-07-28T05:58:31.196Z,102126.91
2022-07-28T06:01:01.926Z,102134.88
2022-07-28T06:03:32.435Z,102138.44
2022-07-28T06:06:15.653Z,102145.56
2022-07-28T06:08:46.286Z,102145.56
2022-07-28T06:11:22.361Z,102146.44
2022-07-28T06:13:52.841Z,102161.44
2022-07-28T06:16:23.187Z,102159.66
2022-07-28T06:18:52.671Z,102164.03
2022-07-28T06:21:24.299Z,102162.31
2022-07-28T06:23:52.894Z,102163.22
2022-07-28T06:26:23.483Z,102161.47
2022-07-28T06:28:52.677Z,102167.66
2022-07-28T06:31:21.109Z,102168.56
2022-07-28T06:33:49.591Z,102174.75
2022-07-28T06:36:20.528Z,102177.38
2022-07-28T06:38:49.624Z,102173.00
2022-07-28T06:41:18.050Z,102178.31
2022-07-28T06:43:46.680Z,102180.09
2022-07-28T06:46:18.812Z,102173.03
2022-07-28T06:48:47.776Z,102171.28
2022-07-28T06:51:19.436Z,102174.78
2022-07-28T06:53:49.539Z,102170.38
2022-07-28T06:56:19.591Z,102172.22
2022-07-28T06:58:50.012Z,102169.59
2022-07-28T07:01:18.355Z,102174.03
2022-07-28T07:03:47.064Z,102172.38
2022-07-28T07:06:15.531Z,102163.53
2022-07-28T07:08:44.363Z,102160.91
2022-07-28T07:11:12.948Z,102160.06
2022-07-28T07:13:41.569Z,102162.78
2022-07-28T07:16:10.507Z,102166.38
2022-07-28T07:18:39.040Z,102154.03
2022-07-28T07:21:07.396Z,102163.84
2022-07-28T07:23:35.773Z,102156.78
2022-07-28T07:26:04.419Z,102156.81
2022-07-28T07:28:34.332Z,102155.94
2022-07-28T07:31:03.380Z,102160.41
2022-07-28T07:33:31.880Z,102155.13
2022-07-28T07:36:00.742Z,102153.41
2022-07-28T07:38:29.462Z,102166.72
2022-07-28T07:40:59.381Z,102158.75
2022-07-28T07:43:28.013Z,102151.75
2022-07-28T07:45:56.658Z,102156.19
2022-07-28T07:48:25.017Z,102151.78
2022-07-28T07:50:54.213Z,102142.06
2022-07-28T07:53:23.051Z,102134.97
2022-07-28T07:55:52.121Z,102137.66
2022-07-28T07:58:20.629Z,102143.81
2022-07-28T08:00:49.430Z,102139.41
2022-07-28T08:03:22.653Z,102144.72
2022-07-28T08:05:55.708Z,102139.41
2022-07-28T08:08:24.236Z,102140.28
2022-07-28T08:10:54.289Z,102142.97
2022-07-28T08:13:23.751Z,102138.50
2022-07-28T08:15:52.460Z,102144.72
2022-07-28T08:18:21.518Z,102132.31
2022-07-28T08:20:49.889Z,102131.41
2022-07-28T08:23:22.871Z,102137.59
2022-07-28T08:25:55.646Z,102134.06
2022-07-28T08:28:24.223Z,102136.72
2022-07-28T08:30:53.752Z,102137.59
2022-07-28T08:33:22.245Z,102132.25
2022-07-28T08:35:50.727Z,102128.66
2022-07-28T08:38:20.163Z,102133.94
2022-07-28T08:40:50.052Z,102125.03
2022-07-28T08:43:34.223Z,102126.72
2022-07-28T08:46:04.779Z,102126.69
2022-07-28T08:48:34.273Z,102130.22
2022-07-28T08:51:09.556Z,102126.59
2022-07-28T08:53:40.167Z,102126.47
2022-07-28T08:56:09.625Z,102118.34
2022-07-28T08:58:38.680Z,102125.34
2022-07-28T09:01:08.612Z,102117.34
2022-07-28T09:03:39.275Z,102121.75
2022-07-28T09:06:07.708Z,102135.06
2022-07-28T09:08:36.638Z,102117.28
2022-07-28T09:11:06.824Z,102124.41
2022-07-28T09:13:35.994Z,102125.28
2022-07-28T09:16:07.076Z,102122.53
2022-07-28T09:18:36.439Z,102118.06
2022-07-28T09:21:04.738Z,102123.31
2022-07-28T09:23:44.531Z,102115.22
2022-07-28T09:26:13.464Z,102114.28
2022-07-28T09:28:52.515Z,102116.88
2022-07-28T09:31:23.125Z,102118.59
2022-07-28T09:34:03.131Z,102120.38
2022-07-28T09:36:39.925Z,102118.59
2022-07-28T09:39:08.753Z,102119.41
2022-07-28T09:41:55.304Z,102111.41
2022-07-28T09:44:24.962Z,102120.31
2022-07-28T09:46:55.471Z,102123.03
2022-07-28T09:49:42.113Z,102120.38
2022-07-28T09:52:11.409Z,102123.06
2022-07-28T09:54:41.245Z,102122.22
2022-07-28T09:57:12.965Z,102119.63
2022-07-28T09:59:50.483Z,102118.84
2022-07-28T10:02:26.621Z,102118.94
2022-07-28T10:04:55.519Z,102121.69
2022-07-28T10:07:24.223Z,102127.09
2022-07-28T10:10:02.726Z,102120.97
2022-07-28T10:12:33.040Z,102125.47
2022-07-28T10:15:46.661Z,102121.94
2022-07-28T10:18:19.643Z,102123.81
2022-07-28T10:20:50.852Z,102129.19
2022-07-28T10:23:20.601Z,102131.88
2022-07-28T10:25:51.107Z,102129.25
2022-07-28T10:28:21.751Z,102126.63
2022-07-28T10:30:55.423Z,102122.22
2022-07-28T10:33:29.336Z,102124.06
2022-07-28T10:35:58.284Z,102119.69
2022-07-28T10:38:34.452Z,102114.41
2022-07-28T10:41:06.736Z,102117.97
2022-07-28T10:43:36.736Z,102118.00
2022-07-28T10:46:16.016Z,102108.22
2022-07-28T10:48:45.192Z,102105.59
2022-07-28T10:51:14.749Z,102105.56
2022-07-28T10:53:54.489Z,102108.22
2022-07-28T10:56:41.473Z,102103.75
2022-07-28T10:59:11.296Z,102105.50
2022-07-28T11:01:49.985Z,102104.56
2022-07-28T11:04:52.345Z,102106.25
2022-07-28T11:07:22.320Z,102104.41
2022-07-28T11:09:52.296Z,102107.03
2022-07-28T11:12:56.516Z,102105.22
2022-07-28T11:15:33.828Z,102106.94
2022-07-28T11:18:04.548Z,102107.72
2022-07-28T11:20:56.417Z,102110.28
2022-07-28T11:23:46.449Z,102112.81
2022-07-28T11:26:24.089Z,102107.31
2022-07-28T11:29:05.624Z,102105.34
2022-07-28T11:31:49.105Z,102100.78
2022-07-28T11:34:23.394Z,102095.31
2022-07-28T11:36:58.077Z,102098.72
2022-07-28T11:39:42.828Z,102091.47
2022-07-28T11:42:30.858Z,102087.06
2022-07-28T11:45:22.925Z,102088.75
2022-07-28T11:48:14.581Z,102087.59
2022-07-28T11:51:03.518Z,102082.06
2022-07-28T11:53:52.953Z,102079.16
2022-07-28T11:56:26.528Z,102073.59
2022-07-28T11:58:59.982Z,102074.28
2022-07-28T12:01:32.015Z,102077.69
2022-07-28T12:04:10.376Z,102083.94
2022-07-28T12:06:40.673Z,102083.13
2022-07-28T12:09:11.128Z,102078.66
2022-07-28T12:11:43.829Z,102085.63
2022-07-28T12:14:17.171Z,102083.72
2022-07-28T12:16:50.730Z,102078.38
2022-07-28T12:19:19.955Z,102080.19
2022-07-28T12:21:49.398Z,102075.69
2022-07-28T12:24:23.905Z,102084.59
2022-07-28T12:26:54.726Z,102078.41
2022-07-28T12:29:24.131Z,102078.50
2022-07-28T12:32:04.852Z,102066.88
2022-07-28T12:34:35.434Z,102080.28
2022-07-28T12:37:06.537Z,102078.66
2022-07-28T12:39:39.836Z,102076.88
2022-07-28T12:42:10.955Z,102072.53
2022-07-28T12:44:41.496Z,102070.81
2022-07-28T12:47:12.454Z,102071.63
2022-07-28T12:49:43.947Z,102062.66
2022-07-28T12:52:17.191Z,102068.84
2022-07-28T12:54:54.432Z,102060.75
2022-07-28T12:57:49.908Z,102050.66
2022-07-28T13:00:29.675Z,102058.63
2022-07-28T13:03:01.017Z,102063.22
2022-07-28T13:05:33.365Z,102059.91
2022-07-28T13:08:06.243Z,102061.81
2022-07-28T13:10:34.843Z,102062.84
2022-07-28T13:13:07.137Z,102064.75
2022-07-28T13:15:35.574Z,102063.97
2022-07-28T13:18:05.380Z,102054.16
2022-07-28T13:20:48.320Z,102060.34
2022-07-28T13:23:17.055Z,102059.41
2022-07-28T13:25:45.586Z,102052.28
2022-07-28T13:28:26.987Z,102058.34
2022-07-28T13:30:55.534Z,102051.94
2022-07-28T13:33:26.796Z,102054.44
2022-07-28T13:35:56.735Z,102052.47
2022-07-28T13:38:25.320Z,102044.28
2022-07-28T13:40:54.555Z,102049.47
2022-07-28T13:43:22.880Z,102041.25
2022-07-28T13:45:59.939Z,102049.28
2022-07-28T13:48:32.935Z,102049.28
2022-07-28T13:51:02.355Z,102050.28
2022-07-28T13:53:30.910Z,102043.44
2022-07-28T13:55:59.439Z,102041.81
2022-07-28T13:58:27.805Z,102040.88
2022-07-28T14:00:59.073Z,102032.72
2022-07-28T14:03:28.928Z,102044.16
2022-07-28T14:06:18.347Z,102034.25
2022-07-28T14:08:47.915Z,102035.84
2022-07-28T14:11:16.662Z,102036.53
2022-07-28T14:13:44.982Z,102038.03
2022-07-28T14:16:14.499Z,102029.81
2022-07-28T14:18:42.971Z,102037.81
2022-07-28T14:21:11.274Z,102031.63
2022-07-28T14:23:39.999Z,102028.88
2022-07-28T14:26:34.511Z,102022.50
2022-07-28T14:28:57.380Z,102028.91
2022-07-28T14:31:25.874Z,102035.22
2022-07-28T14:33:58.507Z,102023.81
2022-07-28T14:36:26.802Z,102019.47
2022-07-28T14:38:55.171Z,102013.25
2022-07-28T14:41:24.072Z,102015.03
2022-07-28T14:43:53.090Z,102027.66
2022-07-28T14:46:22.187Z,102015.34
2022-07-28T14:48:58.451Z,102017.16
2022-07-28T14:51:26.851Z,102019.72
2022-07-28T14:53:57.832Z,102010.63
2022-07-28T14:56:26.160Z,102006.06
2022-07-28T14:58:54.418Z,101998.81
2022-07-28T15:01:23.094Z,101991.50
2022-07-28T15:03:51.449Z,102000.41
2022-07-28T15:06:19.690Z,101991.72
2022-07-28T15:08:47.976Z,101993.47
2022-07-28T15:11:16.241Z,101992.31
2022-07-28T15:13:44.586Z,101999.16
2022-07-28T15:16:12.947Z,101996.63
2022-07-28T15:18:41.261Z,101997.94
2022-07-28T15:21:12.683Z,101992.13
2022-07-28T15:23:41.253Z,101992.44
2022-07-28T15:26:10.153Z,101993.59
2022-07-28T15:28:38.803Z,101990.25
2022-07-28T15:31:08.473Z,101981.69
2022-07-28T15:33:43.862Z,101982.81
2022-07-28T15:36:17.017Z,101986.53
2022-07-28T15:38:47.349Z,101981.19
2022-07-28T15:41:18.099Z,101975.91
2022-07-28T15:43:46.589Z,101977.81
2022-07-28T15:46:15.186Z,101981.31
2022-07-28T15:48:44.761Z,101973.06
2022-07-28T15:51:13.309Z,101976.47
2022-07-28T15:53:41.933Z,101973.63
2022-07-28T15:56:10.512Z,101971.78
2022-07-28T15:58:38.919Z,101969.00
2022-07-28T16:01:07.744Z,101968.13
2022-07-28T16:03:36.015Z,101968.31
2022-07-28T16:06:04.583Z,101964.88
2022-07-28T16:08:32.908Z,101961.28
2022-07-28T16:11:01.516Z,101966.56
2022-07-28T16:13:36.245Z,101961.97
2022-07-28T16:16:10.550Z,101961.31
2022-07-28T16:18:42.075Z,101963.31
2022-07-28T16:21:11.155Z,101961.53
2022-07-28T16:23:39.765Z,101966.06
2022-07-28T16:26:09.556Z,101955.59
2022-07-28T16:28:38.232Z,101966.38
2022-07-28T16:31:06.857Z,101960.25
2022-07-28T16:33:35.414Z,101958.59
2022-07-28T16:36:04.688Z,101957.91
2022-07-28T16:38:33.069Z,101962.47
2022-07-28T16:41:01.424Z,101968.75
2022-07-28T16:43:30.476Z,101969.69
2022-07-28T16:45:58.861Z,101962.59
2022-07-28T16:48:27.282Z,101964.34
2022-07-28T16:50:56.621Z,101961.72
2022-07-28T16:53:25.006Z,101964.47
2022-07-28T16:55:53.579Z,101968.16
2022-07-28T16:58:22.684Z,101964.66
2022-07-28T17:00:51.382Z,101971.81
2022-07-28T17:03:19.802Z,101966.50
2022-07-28T17:05:48.563Z,101980.72
2022-07-28T17:08:17.712Z,101970.97
2022-07-28T17:10:49.200Z,101975.44
2022-07-28T17:13:19.511Z,101978.09
2022-07-28T17:15:47.849Z,101985.22
2022-07-28T17:18:18.619Z,101976.38
2022-07-28T17:20:47.326Z,101977.28
2022-07-28T17:23:15.783Z,101970.28
2022-07-28T17:26:21.216Z,101979.25
2022-07-28T17:28:32.961Z,101981.06
2022-07-28T17:31:01.522Z,101973.06
2022-07-28T17:33:31.285Z,101975.78
2022-07-28T17:36:00.325Z,101978.53
2022-07-28T17:38:32.951Z,101976.88
2022-07-28T17:41:04.315Z,101980.50
2022-07-28T17:43:33.077Z,101977.84
2022-07-28T17:46:03.001Z,101974.31
2022-07-28T17:48:38.393Z,101970.78
2022-07-28T17:51:07.048Z,101985.03
2022-07-28T17:53:39.245Z,101967.25
2022-07-28T17:56:08.939Z,101966.41
2022-07-28T17:58:38.674Z,101975.31
2022-07-28T18:01:12.856Z,101972.69
2022-07-28T18:03:56.631Z,101970.94
2022-07-28T18:06:30.971Z,101970.97
2022-07-28T18:09:06.323Z,101963.03
2022-07-28T18:11:57.821Z,101965.72
2022-07-28T18:14:27.942Z,101960.44
2022-07-28T18:16:57.158Z,101964.00
2022-07-28T18:19:26.686Z,101960.50
2022-07-28T18:21:56.025Z,101957.00
2022-07-28T18:24:24.653Z,101966.81
2022-07-28T18:26:53.907Z,101965.06
2022-07-28T18:29:22.458Z,101961.59
2022-07-28T18:31:52.530Z,101962.50
2022-07-28T18:34:24.613Z,101962.50
2022-07-28T18:36:54.503Z,101970.56
2022-07-28T18:39:22.930Z,101962.56
2022-07-28T18:41:55.320Z,101966.16
2022-07-28T18:44:23.623Z,101969.75
2022-07-28T18:46:52.193Z,101965.34
2022-07-28T18:49:21.752Z,101962.69
2022-07-28T18:51:52.661Z,101962.72
2022-07-28T18:54:27.060Z,101961.84
2022-07-28T18:56:56.619Z,101965.44
2022-07-28T18:59:25.345Z,101958.34
2022-07-28T19:01:53.880Z,101957.47
2022-07-28T19:04:22.393Z,101962.81
2022-07-28T19:06:51.025Z,101952.16
2022-07-28T19:09:19.646Z,101949.50
2022-07-28T19:11:48.100Z,101954.84
2022-07-28T19:14:17.562Z,101967.25
2022-07-28T19:16:46.411Z,101962.84
2022-07-28T19:19:15.304Z,101963.72
2022-07-28T19:21:43.944Z,101961.09
2022-07-28T19:24:14.326Z,101966.44
2022-07-28T19:26:44.810Z,101962.88
2022-07-28T19:29:13.612Z,101965.56
2022-07-28T19:31:42.063Z,101970.91
2022-07-28T19:34:10.809Z,101980.66
2022-07-28T19:36:41.534Z,101984.22
2022-07-28T19:39:12.196Z,101986.88
2022-07-28T19:41:40.611Z,101986.91
2022-07-28T19:44:09.604Z,101980.72
2022-07-28T19:46:39.263Z,101994.91
2022-07-28T19:49:09.169Z,101986.91
2022-07-28T19:51:38.325Z,101991.34
2022-07-28T19:54:06.786Z,101994.03
2022-07-28T19:56:35.156Z,102002.00
2022-07-28T19:59:03.480Z,101993.16
2022-07-28T20:01:31.843Z,102004.69
2022-07-28T20:04:04.956Z,101998.47
2022-07-28T20:06:34.424Z,102002.03
2022-07-28T20:09:04.395Z,102004.66
2022-07-28T20:11:34.040Z,102005.56
2022-07-28T20:14:02.766Z,102002.91
2022-07-28T20:16:31.230Z,102007.34
2022-07-28T20:18:59.912Z,102006.47
2022-07-28T20:21:28.296Z,102001.13
2022-07-28T20:23:57.433Z,102002.91
2022-07-28T20:26:26.791Z,102010.00
2022-07-28T20:28:56.488Z,102014.44
2022-07-28T20:31:24.947Z,102008.22
2022-07-28T20:33:53.797Z,102008.22
2022-07-28T20:36:25.074Z,102005.59
2022-07-28T20:38:57.640Z,102004.66
2022-07-28T20:41:25.929Z,102004.66
2022-07-28T20:46:42.900Z,102018.81
2022-07-28T20:49:11.293Z,102033.84
2022-07-28T20:51:39.774Z,102024.13
2022-07-28T20:54:19.337Z,102029.44
2022-07-28T20:56:47.922Z,102021.47
2022-07-28T20:59:16.542Z,102029.44
2022-07-28T21:01:45.058Z,102030.31
2022-07-28T21:04:18.309Z,102023.25
2022-07-28T21:06:52.105Z,102020.56
2022-07-28T21:09:21.945Z,102022.34
2022-07-28T21:11:51.035Z,102029.44
2022-07-28T21:14:20.279Z,102040.06
2022-07-28T21:16:55.480Z,102026.75
2022-07-28T21:19:27.705Z,102025.00
2022-07-28T21:21:56.479Z,102031.19
2022-07-28T21:24:25.231Z,102041.81
2022-07-28T21:27:00.626Z,102038.28
2022-07-28T21:29:29.729Z,102035.63
2022-07-28T21:32:03.883Z,102048.00
2022-07-28T21:34:38.202Z,102045.34
2022-07-28T21:37:11.649Z,102037.38
2022-07-28T21:39:40.662Z,102041.78
2022-07-28T21:42:09.729Z,102040.00
2022-07-28T21:44:38.162Z,102043.56
2022-07-28T21:47:07.072Z,102040.91
2022-07-28T21:49:35.565Z,102042.69
2022-07-28T21:52:04.353Z,102044.44
2022-07-28T21:54:32.746Z,102044.47
2022-07-28T21:57:01.033Z,102040.00
2022-07-28T21:59:29.472Z,102035.59
2022-07-28T22:01:57.913Z,102044.47
2022-07-28T22:04:26.194Z,102032.94
2022-07-28T22:06:54.709Z,102041.78
2022-07-28T22:09:23.004Z,102048.88
2022-07-28T22:11:51.784Z,102035.59
2022-07-28T22:14:20.154Z,102040.03
2022-07-28T22:16:48.514Z,102048.88
2022-07-28T22:19:16.936Z,102045.34
2022-07-28T22:21:45.378Z,102049.75
2022-07-28T22:24:16.952Z,102040.00
2022-07-28T22:26:45.554Z,102043.56
2022-07-28T22:29:14.575Z,102040.00
2022-07-28T22:31:44.357Z,102037.38
2022-07-28T22:34:13.097Z,102036.44
2022-07-28T22:36:41.773Z,102035.56
2022-07-28T22:39:10.057Z,102041.78
2022-07-28T22:41:38.427Z,102040.88
2022-07-28T22:44:07.675Z,102024.94
2022-07-28T22:46:36.342Z,102036.44
2022-07-28T22:49:04.855Z,102038.19
2022-07-28T22:51:33.447Z,102035.53
2022-07-28T22:54:02.560Z,102040.88
2022-07-28T22:56:34.725Z,102041.72
2022-07-28T22:59:05.830Z,102049.69
2022-07-28T23:01:37.344Z,102041.72
2022-07-28T23:04:06.143Z,102046.13
2022-07-28T23:06:36.123Z,102055.88
2022-07-28T23:09:06.547Z,102048.78
2022-07-28T23:11:34.957Z,102053.22
2022-07-28T23:14:03.642Z,102045.25
2022-07-28T23:16:32.228Z,102039.94
2022-07-28T23:19:00.620Z,102038.16
2022-07-28T23:21:29.151Z,102041.72
2022-07-28T23:23:57.500Z,102044.38
2022-07-28T23:26:25.869Z,102032.88
2022-07-28T23:28:54.550Z,102029.31
2022-07-28T23:31:23.046Z,102017.81
2022-07-28T23:33:56.033Z,102027.56
2022-07-28T23:36:27.870Z,102027.53
2022-07-28T23:38:58.611Z,102030.19
2022-07-28T23:41:27.514Z,102028.41
2022-07-28T23:43:56.088Z,102031.94
2022-07-28T23:46:24.690Z,102024.91
2022-07-28T23:48:53.196Z,102030.22
2022-07-28T23:51:47.179Z,102030.19
2022-07-28T23:54:11.398Z,102031.97
2022-07-28T23:56:43.484Z,102030.19
2022-07-28T23:59:14.371Z,102027.53
